Time;durP1;ratioP1;P1;durP2;ratioP2;P2;SDS_P1;SDS_P2;PMS_P1;PMS_P2;Temp;Humidity;BMP_temperature;BMP_pressure;BME280_temperature;BME280_humidity;BME280_pressure;Samples;Min_cycle;Max_cycle;Signal;HPM_P1;HPM_P2
2022/03/10 00:00:26;;;;;;;1.27;1.17;;;;;;;;;;4985501;28;20500;-77
2022/03/10 00:02:51;;;;;;;2.65;1.48;;;;;;;;;;4977815;28;20501;-76
2022/03/10 00:05:18;;;;;;;1.17;0.77;;;;;;;;;;4981585;28;20069;-78
2022/03/10 00:07:44;;;;;;;1.60;1.50;;;;;;;;;;4977882;28;20042;-77
2022/03/10 00:10:09;;;;;;;1.48;1.38;;;;;;;;;;4982497;28;20030;-76
2022/03/10 00:12:35;;;;;;;0.75;0.75;;;;;;;;;;4988044;28;20022;-75
2022/03/10 00:15:07;;;;;;;1.38;1.27;;;;;;;;;;4993164;28;20096;-76
2022/03/10 00:17:32;;;;;;;1.25;1.20;;;;;;;;;;5003318;28;20077;-76
2022/03/10 00:20:00;;;;;;;0.90;0.90;;;;;;;;;;4984054;28;20616;-76
2022/03/10 00:22:28;;;;;;;1.55;1.45;;;;;;;;;;4988047;28;20041;-77
2022/03/10 00:24:56;;;;;;;2.75;1.23;;;;;;;;;;4986355;28;20093;-76
2022/03/10 00:27:23;;;;;;;1.00;1.00;;;;;;;;;;4976502;28;20105;-77
2022/03/10 00:29:49;;;;;;;1.52;1.33;;;;;;;;;;4979099;28;20026;-76
2022/03/10 00:32:17;;;;;;;2.17;1.73;;;;;;;;;;4980753;28;20378;-76
2022/03/10 00:34:42;;;;;;;3.00;2.35;;;;;;;;;;4981187;28;20450;-77
2022/03/10 00:37:07;;;;;;;1.30;1.10;;;;;;;;;;4989608;28;20031;-76
2022/03/10 00:39:35;;;;;;;1.90;1.75;;;;;;;;;;4997360;28;20033;-76
2022/03/10 00:42:15;;;;;;;2.80;2.05;;;;;;;;;;4992505;28;20018;-76
2022/03/10 00:44:40;;;;;;;1.65;1.55;;;;;;;;;;4986841;28;20026;-76
2022/03/10 00:47:05;;;;;;;2.28;2.10;;;;;;;;;;4984447;28;20078;-75
2022/03/10 00:49:31;;;;;;;4.03;2.55;;;;;;;;;;4981561;28;20023;-76
2022/03/10 00:51:56;;;;;;;2.05;1.85;;;;;;;;;;4977551;28;20041;-76
2022/03/10 00:54:24;;;;;;;0.82;0.77;;;;;;;;;;4980589;28;20033;-77
2022/03/10 00:56:49;;;;;;;1.58;1.48;;;;;;;;;;4985701;28;20018;-75
2022/03/10 00:59:15;;;;;;;1.58;1.30;;;;;;;;;;4989476;28;20061;-76
2022/03/10 01:01:40;;;;;;;1.45;1.35;;;;;;;;;;4988989;28;20026;-76
2022/03/10 01:04:05;;;;;;;2.42;1.27;;;;;;;;;;4983081;28;20041;-75
2022/03/10 01:06:31;;;;;;;1.80;0.95;;;;;;;;;;4995580;28;20022;-75
2022/03/10 01:08:56;;;;;;;1.70;1.17;;;;;;;;;;4992431;28;20456;-76
2022/03/10 01:11:21;;;;;;;1.40;1.30;;;;;;;;;;4988963;28;20026;-76
2022/03/10 01:13:46;;;;;;;2.53;2.33;;;;;;;;;;4976873;28;20035;-76
2022/03/10 01:16:12;;;;;;;3.28;2.00;;;;;;;;;;4981744;28;20118;-76
2022/03/10 01:18:37;;;;;;;2.83;2.58;;;;;;;;;;4985483;28;20122;-76
2022/03/10 01:21:02;;;;;;;0.88;0.88;;;;;;;;;;4988818;28;20080;-76
2022/03/10 01:23:28;;;;;;;2.50;2.30;;;;;;;;;;4982839;28;20027;-76
2022/03/10 01:25:53;;;;;;;1.92;1.83;;;;;;;;;;4980982;28;20109;-76
2022/03/10 01:28:21;;;;;;;0.93;0.88;;;;;;;;;;4985005;28;20026;-73
2022/03/10 01:30:48;;;;;;;1.40;1.30;;;;;;;;;;5027829;23;20069;-75
2022/03/10 01:33:13;;;;;;;2.58;2.05;;;;;;;;;;4994219;28;20054;-76
2022/03/10 01:35:39;;;;;;;1.95;1.77;;;;;;;;;;4991273;28;20076;-75
2022/03/10 01:38:04;;;;;;;1.95;1.75;;;;;;;;;;4994506;28;20034;-75
2022/03/10 01:40:34;;;;;;;1.08;1.05;;;;;;;;;;4994755;28;20037;-76
2022/03/10 01:42:59;;;;;;;1.48;1.38;;;;;;;;;;4989470;28;20026;-75
2022/03/10 01:45:25;;;;;;;2.47;2.28;;;;;;;;;;4992505;28;20037;-75
2022/03/10 01:47:50;;;;;;;1.90;1.15;;;;;;;;;;4994390;28;20034;-76
2022/03/10 01:50:16;;;;;;;1.02;0.93;;;;;;;;;;4994988;28;20030;-75
2022/03/10 01:52:42;;;;;;;0.50;0.50;;;;;;;;;;4991161;28;20516;-76
2022/03/10 01:55:11;;;;;;;2.05;1.48;;;;;;;;;;4991283;28;20141;-75
2022/03/10 01:57:37;;;;;;;2.15;1.58;;;;;;;;;;4991637;28;20026;-75
2022/03/10 02:00:05;;;;;;;1.70;1.60;;;;;;;;;;4977460;28;20084;-76
2022/03/10 02:02:31;;;;;;;2.03;1.65;;;;;;;;;;4987741;28;20045;-76
2022/03/10 02:04:56;;;;;;;0.25;0.25;;;;;;;;;;4994072;28;20122;-75
2022/03/10 02:10:17;;;;;;;2.15;2.05;;;;;;;;;;4993747;28;20045;-75
2022/03/10 02:12:50;;;;;;;0.85;0.85;;;;;;;;;;4991053;28;20680;-76
2022/03/10 02:18:03;;;;;;;0.57;0.57;;;;;;;;;;4988142;28;20049;-75
2022/03/10 02:20:33;;;;;;;1.52;1.42;;;;;;;;;;4998558;28;20057;-76
2022/03/10 02:23:04;;;;;;;1.80;1.65;;;;;;;;;;4993536;28;20045;-76
2022/03/10 02:25:29;;;;;;;0.98;0.95;;;;;;;;;;4994854;28;20026;-76
2022/03/10 02:27:57;;;;;;;1.20;1.10;;;;;;;;;;4993600;28;20153;-75
2022/03/10 02:30:25;;;;;;;1.13;1.10;;;;;;;;;;4998576;28;20425;-75
2022/03/10 02:32:50;;;;;;;0.52;0.52;;;;;;;;;;4991113;28;20031;-76
2022/03/10 02:35:18;;;;;;;3.22;1.55;;;;;;;;;;4994478;28;20473;-75
2022/03/10 02:37:47;;;;;;;2.60;2.05;;;;;;;;;;4992380;28;20051;-76
2022/03/10 02:40:17;;;;;;;0.43;0.43;;;;;;;;;;4998135;28;20030;-76
2022/03/10 02:42:45;;;;;;;0.63;0.57;;;;;;;;;;4990561;28;20026;-75
2022/03/10 02:45:13;;;;;;;1.02;1.00;;;;;;;;;;4994214;28;20338;-75
2022/03/10 02:47:40;;;;;;;1.45;1.35;;;;;;;;;;4994460;28;20027;-76
2022/03/10 02:50:07;;;;;;;1.20;1.10;;;;;;;;;;4996090;28;20097;-76
2022/03/10 02:52:36;;;;;;;0.63;0.63;;;;;;;;;;4996894;28;20030;-75
2022/03/10 02:55:04;;;;;;;0.93;0.85;;;;;;;;;;4996899;28;20036;-76
2022/03/10 02:57:31;;;;;;;4.00;2.15;;;;;;;;;;4999004;28;20026;-76
2022/03/10 02:59:56;;;;;;;1.17;1.10;;;;;;;;;;4999639;28;20369;-76
2022/03/10 03:02:22;;;;;;;1.65;1.55;;;;;;;;;;4995182;28;20061;-75
2022/03/10 03:04:47;;;;;;;0.55;0.47;;;;;;;;;;4996325;28;20041;-76
2022/03/10 03:07:12;;;;;;;1.67;1.02;;;;;;;;;;4999370;28;20053;-75
2022/03/10 03:09:38;;;;;;;1.63;1.52;;;;;;;;;;4997732;28;20030;-76
2022/03/10 03:12:05;;;;;;;1.35;1.27;;;;;;;;;;4997440;28;20030;-76
2022/03/10 03:14:31;;;;;;;0.52;0.52;;;;;;;;;;4997952;28;20030;-76
2022/03/10 03:16:57;;;;;;;0.70;0.70;;;;;;;;;;5001852;28;20105;-76
2022/03/10 03:19:23;;;;;;;0.45;0.45;;;;;;;;;;4997537;28;20026;-76
2022/03/10 03:21:50;;;;;;;1.42;1.33;;;;;;;;;;4995787;28;20365;-76
2022/03/10 03:24:16;;;;;;;2.47;1.88;;;;;;;;;;4998176;28;20085;-76
2022/03/10 03:26:41;;;;;;;3.40;2.00;;;;;;;;;;4994173;28;20428;-75
2022/03/10 03:29:07;;;;;;;0.63;0.63;;;;;;;;;;4998066;28;20092;-75
2022/03/10 03:31:32;;;;;;;1.15;0.68;;;;;;;;;;4996845;28;20177;-74
2022/03/10 03:33:57;;;;;;;0.63;0.63;;;;;;;;;;4997260;28;20087;-76
2022/03/10 03:36:23;;;;;;;1.02;0.95;;;;;;;;;;4996216;28;20083;-76
2022/03/10 03:38:48;;;;;;;0.82;0.82;;;;;;;;;;4997356;28;20335;-75
2022/03/10 03:41:16;;;;;;;0.22;0.10;;;;;;;;;;5001815;28;20169;-76
2022/03/10 03:43:44;;;;;;;1.25;1.15;;;;;;;;;;4995185;28;20099;-75
2022/03/10 03:46:10;;;;;;;2.33;2.13;;;;;;;;;;4997801;28;20096;-76
2022/03/10 03:48:37;;;;;;;0.98;0.98;;;;;;;;;;4995473;28;20022;-75
2022/03/10 03:51:03;;;;;;;0.80;0.80;;;;;;;;;;5001437;28;20034;-76
2022/03/10 03:53:28;;;;;;;0.52;0.52;;;;;;;;;;5000260;28;20038;-76
2022/03/10 03:55:56;;;;;;;0.57;0.50;;;;;;;;;;4996170;28;20065;-76
2022/03/10 03:58:21;;;;;;;0.50;0.45;;;;;;;;;;4997948;28;20034;-76
2022/03/10 04:00:46;;;;;;;0.73;0.70;;;;;;;;;;4995413;28;20126;-75
2022/03/10 04:03:12;;;;;;;0.98;0.98;;;;;;;;;;4996179;28;20027;-75
2022/03/10 04:05:38;;;;;;;0.68;0.68;;;;;;;;;;4996427;28;20022;-76
2022/03/10 04:08:04;;;;;;;1.10;1.10;;;;;;;;;;4996198;28;20076;-76
2022/03/10 04:10:32;;;;;;;2.45;0.73;;;;;;;;;;4996278;28;20405;-76
2022/03/10 04:12:57;;;;;;;1.17;1.08;;;;;;;;;;4996197;28;20030;-76
2022/03/10 04:15:23;;;;;;;1.75;1.65;;;;;;;;;;4997484;28;20079;-75
2022/03/10 04:17:48;;;;;;;1.00;1.00;;;;;;;;;;4996091;28;20031;-75
2022/03/10 04:20:13;;;;;;;0.95;0.88;;;;;;;;;;4997176;28;20034;-76
2022/03/10 04:22:39;;;;;;;0.65;0.52;;;;;;;;;;4989390;28;20042;-75
2022/03/10 04:25:06;;;;;;;0.47;0.47;;;;;;;;;;5012460;28;20026;-75
2022/03/10 04:27:31;;;;;;;0.20;0.20;;;;;;;;;;4995178;28;20035;-76
2022/03/10 04:29:57;;;;;;;0.75;0.75;;;;;;;;;;4995377;28;20030;-76
2022/03/10 04:32:22;;;;;;;0.15;0.15;;;;;;;;;;4996378;28;20031;-75
2022/03/10 04:34:47;;;;;;;1.33;1.27;;;;;;;;;;4993877;28;20623;-76
2022/03/10 04:37:13;;;;;;;2.17;1.63;;;;;;;;;;4995860;28;20049;-75
2022/03/10 04:39:38;;;;;;;17.88;2.67;;;;;;;;;;4996083;28;20189;-75
2022/03/10 04:42:03;;;;;;;0.30;0.30;;;;;;;;;;4996448;28;20335;-74
2022/03/10 04:44:29;;;;;;;1.52;1.15;;;;;;;;;;4991373;28;20391;-75
2022/03/10 04:46:54;;;;;;;0.90;0.85;;;;;;;;;;4995115;28;20113;-75
2022/03/10 04:49:22;;;;;;;1.85;1.60;;;;;;;;;;4993588;28;20110;-75
2022/03/10 04:51:47;;;;;;;0.43;0.43;;;;;;;;;;4995134;28;20042;-75
2022/03/10 04:54:13;;;;;;;0.28;0.28;;;;;;;;;;4995750;28;20445;-75
2022/03/10 04:56:38;;;;;;;0.95;0.88;;;;;;;;;;4995083;28;20026;-75
2022/03/10 04:59:04;;;;;;;0.90;0.90;;;;;;;;;;4993724;28;20109;-75
2022/03/10 05:01:29;;;;;;;0.77;0.77;;;;;;;;;;4992939;28;20065;-74
2022/03/10 05:03:57;;;;;;;1.98;1.02;;;;;;;;;;4993956;28;20445;-75
2022/03/10 05:06:22;;;;;;;0.70;0.68;;;;;;;;;;4994259;28;20030;-75
2022/03/10 05:08:48;;;;;;;1.58;1.48;;;;;;;;;;4995940;28;20069;-75
2022/03/10 05:11:13;;;;;;;2.15;2.05;;;;;;;;;;4991301;28;20497;-74
2022/03/10 05:13:39;;;;;;;0.43;0.43;;;;;;;;;;5005496;28;20030;-75
2022/03/10 05:16:04;;;;;;;0.22;0.22;;;;;;;;;;4995394;28;20030;-75
2022/03/10 05:18:29;;;;;;;2.17;1.98;;;;;;;;;;4995587;28;20526;-75
2022/03/10 05:20:55;;;;;;;39.17;2.92;;;;;;;;;;4993571;28;20482;-75
2022/03/10 05:23:25;;;;;;;0.30;0.30;;;;;;;;;;4993923;28;20084;-76
2022/03/10 05:25:50;;;;;;;0.20;0.20;;;;;;;;;;4996910;28;20030;-75
2022/03/10 05:28:16;;;;;;;0.73;0.73;;;;;;;;;;4995266;28;20450;-75
2022/03/10 05:30:45;;;;;;;0.30;0.30;;;;;;;;;;4994035;28;20042;-75
2022/03/10 05:33:13;;;;;;;1.67;1.58;;;;;;;;;;4994020;28;20116;-75
2022/03/10 05:35:39;;;;;;;1.13;0.98;;;;;;;;;;4978631;28;20354;-75
2022/03/10 05:38:04;;;;;;;0.32;0.32;;;;;;;;;;4994073;28;20030;-75
2022/03/10 05:40:39;;;;;;;1.73;1.13;;;;;;;;;;4989171;28;20122;-75
2022/03/10 05:43:05;;;;;;;0.52;0.52;;;;;;;;;;4994540;28;20026;-76
2022/03/10 05:45:30;;;;;;;0.45;0.45;;;;;;;;;;4994378;28;20042;-75
2022/03/10 05:47:56;;;;;;;1.90;1.25;;;;;;;;;;4995048;28;20045;-76
2022/03/10 05:50:25;;;;;;;2.35;1.20;;;;;;;;;;4994056;28;20311;-76
2022/03/10 05:52:51;;;;;;;0.45;0.45;;;;;;;;;;4995189;28;20060;-76
2022/03/10 05:55:17;;;;;;;0.22;0.22;;;;;;;;;;4982210;28;20038;-76
2022/03/10 05:57:42;;;;;;;0.52;0.52;;;;;;;;;;4994209;28;20048;-77
2022/03/10 06:00:09;;;;;;;0.73;0.70;;;;;;;;;;4992786;28;20097;-78
2022/03/10 06:02:37;;;;;;;0.45;0.45;;;;;;;;;;4992437;28;20034;-79
2022/03/10 06:05:05;;;;;;;0.93;0.88;;;;;;;;;;4983996;28;20046;-78
2022/03/10 06:07:33;;;;;;;0.30;0.30;;;;;;;;;;4990179;28;20117;-78
2022/03/10 06:09:59;;;;;;;0.85;0.85;;;;;;;;;;4993256;28;20030;-77
2022/03/10 06:12:27;;;;;;;0.47;0.47;;;;;;;;;;4999492;28;20085;-77
2022/03/10 06:14:59;;;;;;;0.73;0.73;;;;;;;;;;4993572;28;20034;-79
2022/03/10 06:17:25;;;;;;;0.85;0.85;;;;;;;;;;4995158;28;20026;-77
2022/03/10 06:19:51;;;;;;;0.30;0.30;;;;;;;;;;4993511;28;20148;-77
2022/03/10 06:22:17;;;;;;;1.15;1.15;;;;;;;;;;4976070;28;20093;-74
2022/03/10 06:24:44;;;;;;;0.63;0.63;;;;;;;;;;4992658;28;20117;-74
2022/03/10 06:27:12;;;;;;;1.00;1.00;;;;;;;;;;4993076;28;20026;-74
2022/03/10 06:29:39;;;;;;;0.28;0.28;;;;;;;;;;4993932;28;20034;-74
2022/03/10 06:32:04;;;;;;;0.63;0.63;;;;;;;;;;4993355;28;20133;-73
2022/03/10 06:34:32;;;;;;;0.68;0.68;;;;;;;;;;4994128;28;20494;-74
2022/03/10 06:36:57;;;;;;;1.52;1.48;;;;;;;;;;4997143;28;20031;-74
2022/03/10 06:39:25;;;;;;;1.38;1.27;;;;;;;;;;4992955;28;20032;-74
2022/03/10 06:41:51;;;;;;;1.13;1.02;;;;;;;;;;4975173;28;20033;-73
2022/03/10 06:44:16;;;;;;;1.27;1.17;;;;;;;;;;4989391;28;20026;-74
2022/03/10 06:46:41;;;;;;;0.82;0.82;;;;;;;;;;4974402;28;20038;-74
2022/03/10 06:49:09;;;;;;;0.75;0.75;;;;;;;;;;4993034;28;20457;-75
2022/03/10 06:51:34;;;;;;;0.75;0.75;;;;;;;;;;4991173;28;20034;-74
2022/03/10 06:54:07;;;;;;;2.40;1.77;;;;;;;;;;4992218;28;20022;-75
2022/03/10 06:56:39;;;;;;;;;;;;;;;;;;4993224;28;20441;-74
2022/03/10 06:59:21;;;;;;;1.60;1.45;;;;;;;;;;4973097;28;19913;-74
2022/03/10 07:01:47;;;;;;;;;;;;;;;;;;4987672;28;20034;-74
2022/03/10 07:04:15;;;;;;;0.50;0.50;;;;;;;;;;4992567;28;19917;-73
2022/03/10 07:06:40;;;;;;;0.50;0.50;;;;;;;;;;4989066;28;20089;-74
2022/03/10 07:09:24;;;;;;;1.73;1.33;;;;;;;;;;4993354;28;20034;-76
2022/03/10 07:11:49;;;;;;;0.40;0.40;;;;;;;;;;4989928;28;20030;-77
2022/03/10 07:14:15;;;;;;;0.38;0.38;;;;;;;;;;4993535;28;20088;-75
2022/03/10 07:16:49;;;;;;;3.15;2.33;;;;;;;;;;4993569;28;20045;-76
2022/03/10 07:19:21;;;;;;;0.63;0.63;;;;;;;;;;4992200;28;20027;-75
2022/03/10 07:21:47;;;;;;;0.68;0.68;;;;;;;;;;4991523;28;20105;-75
2022/03/10 07:24:13;;;;;;;0.15;0.15;;;;;;;;;;4992934;28;20327;-75
2022/03/10 07:26:41;;;;;;;2.03;1.92;;;;;;;;;;4995112;28;20091;-75
2022/03/10 07:29:07;;;;;;;1.52;1.33;;;;;;;;;;4987950;28;20027;-74
2022/03/10 07:31:35;;;;;;;1.70;1.58;;;;;;;;;;4989728;28;20167;-74
2022/03/10 07:34:00;;;;;;;0.85;0.85;;;;;;;;;;4993006;28;20040;-74
2022/03/10 07:36:26;;;;;;;2.00;1.88;;;;;;;;;;4995652;28;20031;-74
2022/03/10 07:38:52;;;;;;;2.35;1.75;;;;;;;;;;4994591;28;20100;-74
2022/03/10 07:41:17;;;;;;;1.23;1.13;;;;;;;;;;4999967;28;20212;-74
2022/03/10 07:43:51;;;;;;;1.27;1.08;;;;;;;;;;5001419;28;20568;-76
2022/03/10 07:46:22;;;;;;;1.35;1.25;;;;;;;;;;5001501;28;20488;-75
2022/03/10 07:48:47;;;;;;;0.88;0.80;;;;;;;;;;5004026;28;20492;-75
2022/03/10 07:51:13;;;;;;;1.40;0.98;;;;;;;;;;4996461;28;20046;-74
2022/03/10 07:53:38;;;;;;;0.28;0.28;;;;;;;;;;4999167;28;20029;-74
2022/03/10 07:56:19;;;;;;;1.63;1.02;;;;;;;;;;4995448;28;20038;-73
2022/03/10 07:58:46;;;;;;;11.50;3.22;;;;;;;;;;4996822;28;20049;-75
2022/03/10 08:01:12;;;;;;;3.15;1.73;;;;;;;;;;4998490;28;20034;-73
2022/03/10 08:03:38;;;;;;;3.65;1.30;;;;;;;;;;5000484;28;20362;-77
2022/03/10 08:06:04;;;;;;;6.85;2.08;;;;;;;;;;4995384;28;20109;-74
2022/03/10 08:08:35;;;;;;;1.00;1.00;;;;;;;;;;4989118;28;20114;-74
2022/03/10 08:11:16;;;;;;;2.00;1.83;;;;;;;;;;4990230;28;20581;-75
2022/03/10 08:13:43;;;;;;;3.58;1.65;;;;;;;;;;4995181;28;20023;-75
2022/03/10 08:16:09;;;;;;;1.50;1.40;;;;;;;;;;4995310;28;20045;-75
2022/03/10 08:18:34;;;;;;;1.67;1.58;;;;;;;;;;4995489;28;20027;-75
2022/03/10 08:20:59;;;;;;;9.57;3.38;;;;;;;;;;4991941;28;20032;-75
2022/03/10 08:23:26;;;;;;;1.55;1.45;;;;;;;;;;4995867;28;20121;-75
2022/03/10 08:25:51;;;;;;;1.83;1.52;;;;;;;;;;4995249;28;20026;-74
2022/03/10 08:28:19;;;;;;;3.70;2.05;;;;;;;;;;4996432;28;20034;-74
2022/03/10 08:30:44;;;;;;;6.57;2.67;;;;;;;;;;4994300;28;20034;-75
2022/03/10 08:33:09;;;;;;;4.57;2.30;;;;;;;;;;4995986;28;20107;-75
2022/03/10 08:35:37;;;;;;;3.50;2.45;;;;;;;;;;4996011;28;20424;-75
2022/03/10 08:38:03;;;;;;;5.03;2.72;;;;;;;;;;4993289;28;20034;-76
2022/03/10 08:40:31;;;;;;;4.28;2.35;;;;;;;;;;4993131;28;20078;-76
2022/03/10 08:42:57;;;;;;;6.90;3.25;;;;;;;;;;4993258;28;20084;-77
2022/03/10 08:45:25;;;;;;;9.68;3.33;;;;;;;;;;4995495;28;20404;-77
2022/03/10 08:47:55;;;;;;;4.40;3.25;;;;;;;;;;4993533;28;20472;-79
2022/03/10 08:50:21;;;;;;;4.93;3.50;;;;;;;;;;4994164;28;20117;-76
2022/03/10 08:52:46;;;;;;;4.97;3.35;;;;;;;;;;4994233;28;20068;-75
2022/03/10 08:55:12;;;;;;;4.63;2.83;;;;;;;;;;4990817;28;20054;-75
2022/03/10 08:57:38;;;;;;;4.18;3.03;;;;;;;;;;4992209;28;20018;-77
2022/03/10 09:00:06;;;;;;;3.80;2.17;;;;;;;;;;4987724;28;20022;-77
2022/03/10 09:02:31;;;;;;;4.97;3.53;;;;;;;;;;4988186;28;20113;-76
2022/03/10 09:04:56;;;;;;;3.35;3.05;;;;;;;;;;4986407;28;20636;-75
2022/03/10 09:07:24;;;;;;;7.97;3.17;;;;;;;;;;4992674;28;20038;-75
2022/03/10 09:09:50;;;;;;;6.15;2.42;;;;;;;;;;4987153;28;20030;-74
2022/03/10 09:12:18;;;;;;;5.63;3.20;;;;;;;;;;4991636;28;20049;-75
2022/03/10 09:14:45;;;;;;;6.18;3.72;;;;;;;;;;4987838;28;20119;-76
2022/03/10 09:17:28;;;;;;;5.95;3.42;;;;;;;;;;4988774;28;20022;-77
2022/03/10 09:19:54;;;;;;;4.53;2.92;;;;;;;;;;4983634;28;20035;-76
2022/03/10 09:22:23;;;;;;;4.00;2.90;;;;;;;;;;4999031;28;20034;-79
2022/03/10 09:24:48;;;;;;;2.90;2.65;;;;;;;;;;4992604;28;20022;-75
2022/03/10 09:27:14;;;;;;;3.92;2.75;;;;;;;;;;4995317;28;20099;-76
2022/03/10 09:29:41;;;;;;;6.50;4.43;;;;;;;;;;4993847;28;20030;-76
2022/03/10 09:32:07;;;;;;;3.53;2.58;;;;;;;;;;4995578;28;20026;-75
2022/03/10 09:34:34;;;;;;;4.47;3.50;;;;;;;;;;4992992;28;20397;-75
2022/03/10 09:37:00;;;;;;;4.28;3.22;;;;;;;;;;4995277;28;20022;-75
2022/03/10 09:39:25;;;;;;;4.70;3.15;;;;;;;;;;4994900;28;20109;-75
2022/03/10 09:41:53;;;;;;;4.60;2.95;;;;;;;;;;4998273;28;20055;-75
2022/03/10 09:44:20;;;;;;;3.78;2.78;;;;;;;;;;4994470;28;20030;-75
2022/03/10 09:46:49;;;;;;;6.05;2.80;;;;;;;;;;4993879;28;20365;-75
2022/03/10 09:49:14;;;;;;;4.28;2.78;;;;;;;;;;4995026;28;20068;-75
2022/03/10 09:51:40;;;;;;;3.70;2.97;;;;;;;;;;5001307;28;20030;-76
2022/03/10 09:54:05;;;;;;;7.72;5.07;;;;;;;;;;4993556;28;20041;-76
2022/03/10 09:56:31;;;;;;;4.28;3.55;;;;;;;;;;4987161;28;20030;-75
2022/03/10 09:58:58;;;;;;;9.80;5.47;;;;;;;;;;4991889;28;21842;-74
2022/03/10 10:01:26;;;;;;;4.82;2.95;;;;;;;;;;4996771;28;20582;-76
2022/03/10 10:03:51;;;;;;;6.93;3.38;;;;;;;;;;4997385;28;20034;-75
2022/03/10 10:06:19;;;;;;;5.50;4.03;;;;;;;;;;4987453;28;20034;-76
2022/03/10 10:08:53;;;;;;;7.00;4.70;;;;;;;;;;4991317;28;20038;-75
2022/03/10 10:11:29;;;;;;;5.28;3.75;;;;;;;;;;4995320;28;20109;-78
2022/03/10 10:13:54;;;;;;;7.38;3.22;;;;;;;;;;4995999;28;20037;-76
2022/03/10 10:16:21;;;;;;;4.70;3.22;;;;;;;;;;4986980;28;20346;-74
2022/03/10 10:18:51;;;;;;;4.47;2.95;;;;;;;;;;4985623;28;20070;-76
2022/03/10 10:21:20;;;;;;;4.05;3.63;;;;;;;;;;4995840;28;20045;-75
2022/03/10 10:23:45;;;;;;;7.15;2.95;;;;;;;;;;4992818;28;20026;-75
2022/03/10 10:26:12;;;;;;;6.72;4.43;;;;;;;;;;4992846;28;20168;-75
2022/03/10 10:28:40;;;;;;;4.35;2.80;;;;;;;;;;4993246;28;20037;-76
2022/03/10 10:31:12;;;;;;;6.30;4.65;;;;;;;;;;4999810;28;20037;-74
2022/03/10 10:33:41;;;;;;;6.45;3.70;;;;;;;;;;4997402;28;20041;-76
2022/03/10 10:36:37;;;;;;;6.00;2.85;;;;;;;;;;4988083;28;20079;-75
2022/03/10 10:39:09;;;;;;;5.90;3.10;;;;;;;;;;4992574;28;20101;-75
2022/03/10 10:41:35;;;;;;;;;;;;;;;;;;5001781;28;20029;-76
2022/03/10 10:44:08;;;;;;;4.35;3.42;;;;;;;;;;4998396;28;19910;-76
2022/03/10 10:46:33;;;;;;;3.65;2.40;;;;;;;;;;5004080;28;20019;-76
2022/03/10 10:49:02;;;;;;;8.55;3.95;;;;;;;;;;5009518;28;20477;-78
2022/03/10 10:51:29;;;;;;;4.68;2.35;;;;;;;;;;4999330;28;20026;-76
2022/03/10 10:53:55;;;;;;;5.22;3.47;;;;;;;;;;4988960;28;20066;-77
2022/03/10 10:56:20;;;;;;;8.55;4.45;;;;;;;;;;4990112;28;20450;-77
2022/03/10 10:58:46;;;;;;;4.35;2.80;;;;;;;;;;4989566;28;20058;-76
2022/03/10 11:01:31;;;;;;;5.25;3.65;;;;;;;;;;4993125;28;20050;-75
2022/03/10 11:03:56;;;;;;;3.83;1.88;;;;;;;;;;4999628;28;20120;-75
2022/03/10 11:06:25;;;;;;;6.65;3.45;;;;;;;;;;4993571;28;20076;-75
2022/03/10 11:08:51;;;;;;;7.00;4.20;;;;;;;;;;4992379;28;20072;-75
2022/03/10 11:11:18;;;;;;;6.45;2.63;;;;;;;;;;4976085;28;20041;-78
2022/03/10 11:13:44;;;;;;;3.63;2.88;;;;;;;;;;4996778;28;20725;-78
2022/03/10 11:16:12;;;;;;;7.53;3.72;;;;;;;;;;4994746;28;20034;-76
2022/03/10 11:18:40;;;;;;;6.28;3.63;;;;;;;;;;4995428;28;20081;-76
2022/03/10 11:21:10;;;;;;;4.55;3.63;;;;;;;;;;4996873;28;20030;-77
2022/03/10 11:23:38;;;;;;;4.03;2.55;;;;;;;;;;4997552;28;20041;-75
2022/03/10 11:26:09;;;;;;;3.80;3.15;;;;;;;;;;4995682;28;20046;-77
2022/03/10 11:28:42;;;;;;;3.05;2.20;;;;;;;;;;5008313;28;20115;-76
2022/03/10 11:31:09;;;;;;;5.07;2.67;;;;;;;;;;4994968;28;20038;-78
2022/03/10 11:33:36;;;;;;;4.50;3.08;;;;;;;;;;5002807;28;20117;-78
2022/03/10 11:36:28;;;;;;;8.60;4.03;;;;;;;;;;5000194;28;20032;-77
2022/03/10 11:38:55;;;;;;;5.03;3.20;;;;;;;;;;4992418;28;20022;-76
2022/03/10 11:41:24;;;;;;;5.30;2.78;;;;;;;;;;4996749;28;20030;-76
2022/03/10 11:43:58;;;;;;;6.20;2.55;;;;;;;;;;4992918;28;20097;-76
2022/03/10 11:46:29;;;;;;;4.82;2.50;;;;;;;;;;4995408;28;20045;-77
2022/03/10 11:49:17;;;;;;;6.80;3.67;;;;;;;;;;4992133;28;20045;-76
2022/03/10 11:51:47;;;;;;;4.38;2.13;;;;;;;;;;5007336;28;20030;-76
2022/03/10 11:54:34;;;;;;;6.47;2.60;;;;;;;;;;4989808;28;20103;-78
2022/03/10 11:57:05;;;;;;;3.45;1.83;;;;;;;;;;4993904;28;20045;-77
2022/03/10 11:59:34;;;;;;;5.15;1.95;;;;;;;;;;4994991;28;20022;-75
2022/03/10 12:02:04;;;;;;;3.20;2.10;;;;;;;;;;4995791;28;20442;-75
2022/03/10 12:04:36;;;;;;;3.40;2.25;;;;;;;;;;4994448;28;20033;-75
2022/03/10 12:07:05;;;;;;;3.28;2.78;;;;;;;;;;4995790;28;20412;-76
2022/03/10 12:09:38;;;;;;;2.25;1.73;;;;;;;;;;4996215;28;20096;-77
2022/03/10 12:12:26;;;;;;;2.45;2.05;;;;;;;;;;4997472;28;20034;-76
2022/03/10 12:15:29;;;;;;;2.33;2.13;;;;;;;;;;4992486;28;20043;-80
2022/03/10 12:17:58;;;;;;;3.08;1.95;;;;;;;;;;4994146;28;20022;-77
2022/03/10 12:20:43;;;;;;;4.70;2.15;;;;;;;;;;4994152;28;20022;-77
2022/03/10 12:23:12;;;;;;;3.35;2.95;;;;;;;;;;4995950;28;20098;-77
2022/03/10 12:25:40;;;;;;;2.72;1.77;;;;;;;;;;4988056;28;20405;-78
2022/03/10 12:28:07;;;;;;;4.80;3.13;;;;;;;;;;4996702;28;20053;-77
2022/03/10 12:30:40;;;;;;;1.75;1.60;;;;;;;;;;4995380;28;20022;-79
2022/03/10 12:33:05;;;;;;;3.75;1.75;;;;;;;;;;4992570;28;20030;-76
2022/03/10 12:35:41;;;;;;;3.03;1.70;;;;;;;;;;4992300;28;20042;-76
2022/03/10 12:38:07;;;;;;;1.50;1.23;;;;;;;;;;4980055;28;20052;-76
2022/03/10 12:40:35;;;;;;;2.20;2.00;;;;;;;;;;4996596;28;20464;-75
2022/03/10 12:43:02;;;;;;;3.03;1.30;;;;;;;;;;4994103;28;20026;-76
2022/03/10 12:45:29;;;;;;;1.58;1.38;;;;;;;;;;4982054;28;20034;-77
2022/03/10 12:48:23;;;;;;;1.65;1.10;;;;;;;;;;4989584;28;20022;-78
2022/03/10 12:50:48;;;;;;;1.73;1.38;;;;;;;;;;4981990;28;20069;-78
2022/03/10 12:53:15;;;;;;;2.42;1.95;;;;;;;;;;4987692;28;20042;-77
2022/03/10 12:55:41;;;;;;;1.55;1.08;;;;;;;;;;4988467;28;20065;-77
2022/03/10 12:58:07;;;;;;;2.25;1.13;;;;;;;;;;4995402;28;20029;-76
2022/03/10 13:00:41;;;;;;;1.55;0.90;;;;;;;;;;4987990;28;20022;-75
2022/03/10 13:03:06;;;;;;;1.88;1.20;;;;;;;;;;4983639;28;20065;-74
2022/03/10 13:05:38;;;;;;;1.42;1.05;;;;;;;;;;4988584;28;20062;-75
2022/03/10 13:08:05;;;;;;;2.70;1.30;;;;;;;;;;4995080;28;20026;-77
2022/03/10 13:10:31;;;;;;;1.73;0.98;;;;;;;;;;4985672;28;20107;-84
2022/03/10 13:12:56;;;;;;;2.83;1.38;;;;;;;;;;4987898;28;20038;-80
2022/03/10 13:15:25;;;;;;;1.08;0.80;;;;;;;;;;4995828;28;20037;-82
2022/03/10 13:17:53;;;;;;;1.08;1.05;;;;;;;;;;4997682;28;20418;-82
2022/03/10 13:20:25;;;;;;;0.98;0.90;;;;;;;;;;4991341;28;20105;-77
2022/03/10 13:22:55;;;;;;;1.38;1.02;;;;;;;;;;4994175;28;20037;-75
2022/03/10 13:25:25;;;;;;;1.08;0.60;;;;;;;;;;4988808;28;20057;-76
2022/03/10 13:27:52;;;;;;;1.70;1.60;;;;;;;;;;4995407;28;20108;-77
2022/03/10 13:30:25;;;;;;;5.15;1.80;;;;;;;;;;4994077;28;20041;-76
2022/03/10 13:32:51;;;;;;;2.13;1.70;;;;;;;;;;4993314;28;20457;-80
2022/03/10 13:35:22;;;;;;;1.13;0.50;;;;;;;;;;4992804;28;20038;-74
2022/03/10 13:37:50;;;;;;;0.68;0.68;;;;;;;;;;4977888;28;20026;-76
2022/03/10 13:40:17;;;;;;;1.77;1.08;;;;;;;;;;4994761;28;20450;-73
2022/03/10 13:42:49;;;;;;;2.40;1.05;;;;;;;;;;4992134;28;20377;-73
2022/03/10 13:45:19;;;;;;;1.02;0.93;;;;;;;;;;4982745;28;20023;-73
2022/03/10 13:47:52;;;;;;;1.10;1.00;;;;;;;;;;4994198;28;20390;-74
2022/03/10 13:50:23;;;;;;;0.85;0.75;;;;;;;;;;4991666;28;20031;-77
2022/03/10 13:52:53;;;;;;;2.72;1.23;;;;;;;;;;4990904;28;20468;-75
2022/03/10 13:55:26;;;;;;;0.50;0.38;;;;;;;;;;4989546;28;20096;-74
2022/03/10 13:57:56;;;;;;;1.63;0.55;;;;;;;;;;4994775;28;20030;-73
2022/03/10 14:00:26;;;;;;;0.80;0.50;;;;;;;;;;4994013;28;20442;-74
2022/03/10 14:02:52;;;;;;;1.30;0.28;;;;;;;;;;4995245;28;20030;-74
2022/03/10 14:05:20;;;;;;;0.50;0.50;;;;;;;;;;4990927;28;20109;-73
2022/03/10 14:08:12;;;;;;;0.40;0.40;;;;;;;;;;4978003;28;20118;-74
2022/03/10 14:10:40;;;;;;;0.90;0.38;;;;;;;;;;4994101;28;20041;-75
2022/03/10 14:13:09;;;;;;;0.70;0.70;;;;;;;;;;4994838;28;20045;-74
2022/03/10 14:15:36;;;;;;;0.52;0.40;;;;;;;;;;4992445;28;20022;-74
2022/03/10 14:18:15;;;;;;;0.47;0.35;;;;;;;;;;4993754;28;20446;-74
2022/03/10 14:20:40;;;;;;;0.20;0.20;;;;;;;;;;4994794;28;20523;-74
2022/03/10 14:23:09;;;;;;;0.40;0.40;;;;;;;;;;4994776;28;20030;-74
2022/03/10 14:25:52;;;;;;;1.48;0.93;;;;;;;;;;4994124;28;20442;-74
2022/03/10 14:28:27;;;;;;;1.73;0.90;;;;;;;;;;4994218;28;20030;-74
2022/03/10 14:30:52;;;;;;;0.25;0.25;;;;;;;;;;4993588;28;20034;-74
2022/03/10 14:33:21;;;;;;;0.63;0.63;;;;;;;;;;4993636;28;20030;-75
2022/03/10 14:35:51;;;;;;;1.13;1.02;;;;;;;;;;4992400;28;20117;-75
2022/03/10 14:38:17;;;;;;;0.20;0.20;;;;;;;;;;4994230;28;20034;-77
2022/03/10 14:40:45;;;;;;;0.90;0.75;;;;;;;;;;4994434;28;20026;-77
2022/03/10 14:43:13;;;;;;;0.22;0.22;;;;;;;;;;4993988;28;20366;-76
2022/03/10 14:45:39;;;;;;;0.35;0.35;;;;;;;;;;4992775;28;20026;-75
2022/03/10 14:48:10;;;;;;;0.10;0.10;;;;;;;;;;4997459;28;20026;-77
2022/03/10 14:50:37;;;;;;;1.42;0.90;;;;;;;;;;4998228;28;20557;-74
2022/03/10 14:53:03;;;;;;;0.70;0.63;;;;;;;;;;4997245;28;20034;-75